createdAt,value
2019-02-14T00:00:38.925Z,28.92
2019-02-14T00:01:16.984Z,29.55
2019-02-14T00:01:54.592Z,27.27
2019-02-14T00:02:32.184Z,26.80
2019-02-14T00:03:09.732Z,26.65
2019-02-14T00:03:47.355Z,26.60
2019-02-14T00:04:25.088Z,27.80
2019-02-14T00:05:02.390Z,28.15
2019-02-14T00:05:39.968Z,27.52
2019-02-14T00:06:17.860Z,27.10
2019-02-14T00:06:55.442Z,26.52
2019-02-14T00:07:33.271Z,29.32
2019-02-14T00:08:10.364Z,26.62
2019-02-14T00:08:47.672Z,26.30
2019-02-14T00:09:25.160Z,27.32
2019-02-14T00:10:02.465Z,26.48
2019-02-14T00:10:40.411Z,26.97
2019-02-14T00:11:20.140Z,27.70
2019-02-14T00:11:57.442Z,25.20
2019-02-14T00:12:35.095Z,26.20
2019-02-14T00:13:12.716Z,24.75
2019-02-14T00:13:50.446Z,27.60
2019-02-14T00:14:27.868Z,26.93
2019-02-14T00:15:05.504Z,26.15
2019-02-14T00:15:42.904Z,26.80
2019-02-14T00:16:20.304Z,26.60
2019-02-14T00:16:58.452Z,27.07
2019-02-14T00:17:36.135Z,24.52
2019-02-14T00:18:13.520Z,24.27
2019-02-14T00:18:51.333Z,26.12
2019-02-14T00:19:28.880Z,23.90
2019-02-14T00:20:07.165Z,25.05
2019-02-14T00:20:44.824Z,26.07
2019-02-14T00:21:22.750Z,24.80
2019-02-14T00:22:00.132Z,23.77
2019-02-14T00:22:36.965Z,24.23
2019-02-14T00:23:14.636Z,23.32
2019-02-14T00:23:52.612Z,23.57
2019-02-14T00:24:29.964Z,22.25
2019-02-14T00:25:08.029Z,25.43
2019-02-14T00:25:45.764Z,24.47
2019-02-14T00:26:23.370Z,23.95
2019-02-14T00:27:01.308Z,23.92
2019-02-14T00:27:38.866Z,24.25
2019-02-14T00:28:16.450Z,23.62
2019-02-14T00:28:54.282Z,23.45
2019-02-14T00:29:32.688Z,22.27
2019-02-14T00:30:10.645Z,23.67
2019-02-14T00:30:48.828Z,24.63
2019-02-14T00:31:28.167Z,24.10
2019-02-14T00:32:06.269Z,24.20
2019-02-14T00:32:44.148Z,23.25
2019-02-14T00:33:21.429Z,23.75
2019-02-14T00:33:59.046Z,24.70
2019-02-14T00:34:36.789Z,25.27
2019-02-14T00:35:13.879Z,22.82
2019-02-14T00:35:51.466Z,23.57
2019-02-14T00:36:28.992Z,23.18
2019-02-14T00:37:06.530Z,25.35
2019-02-14T00:37:43.975Z,22.85
2019-02-14T00:38:21.975Z,23.87
2019-02-14T00:38:59.124Z,24.98
2019-02-14T00:39:36.420Z,24.45
2019-02-14T00:40:14.428Z,24.00
2019-02-14T00:40:52.337Z,24.77
2019-02-14T00:41:30.436Z,24.15
2019-02-14T00:42:07.837Z,25.90
2019-02-14T00:42:45.450Z,25.72
2019-02-14T00:43:22.746Z,23.05
2019-02-14T00:44:00.422Z,26.12
2019-02-14T00:44:38.060Z,25.08
2019-02-14T00:45:17.126Z,23.10
2019-02-14T00:45:54.431Z,23.38
2019-02-14T00:46:32.062Z,23.65
2019-02-14T00:47:09.711Z,26.65
2019-02-14T00:47:47.264Z,23.40
2019-02-14T00:48:44.036Z,25.15
2019-02-14T00:49:21.717Z,25.57
2019-02-14T00:49:59.596Z,25.50
2019-02-14T00:50:36.968Z,26.15
2019-02-14T00:51:14.588Z,25.08
2019-02-14T00:51:51.606Z,24.70
2019-02-14T00:52:29.288Z,24.72
2019-02-14T00:53:06.898Z,24.27
2019-02-14T00:53:44.296Z,26.20
2019-02-14T00:54:21.808Z,24.92
2019-02-14T00:54:59.207Z,28.17
2019-02-14T00:55:36.840Z,23.57
2019-02-14T00:56:14.964Z,23.92
2019-02-14T00:56:52.688Z,23.92
2019-02-14T00:57:30.655Z,24.27
2019-02-14T00:58:08.560Z,25.40
2019-02-14T00:58:45.864Z,24.30
2019-02-14T00:59:23.111Z,24.72
2019-02-14T01:00:00.297Z,25.25
2019-02-14T01:00:37.412Z,25.32
2019-02-14T01:01:14.450Z,24.72
2019-02-14T01:01:52.268Z,23.25
2019-02-14T01:02:29.740Z,25.55
2019-02-14T01:03:21.558Z,24.23
2019-02-14T01:04:18.482Z,25.70
2019-02-14T01:04:56.790Z,24.60
2019-02-14T01:05:43.293Z,23.00
2019-02-14T01:06:20.048Z,22.20
2019-02-14T01:06:58.030Z,23.65
2019-02-14T01:07:36.110Z,26.33
2019-02-14T01:08:13.596Z,25.43
2019-02-14T01:08:51.276Z,23.75
2019-02-14T01:09:28.768Z,23.87
2019-02-14T01:10:06.783Z,25.23
2019-02-14T01:10:44.439Z,23.73
2019-02-14T01:11:21.984Z,24.32
2019-02-14T01:11:59.560Z,23.80
2019-02-14T01:12:36.941Z,22.62
2019-02-14T01:13:14.532Z,24.25
2019-02-14T01:13:51.905Z,24.25
2019-02-14T01:14:29.790Z,24.67
2019-02-14T01:15:08.533Z,24.72
2019-02-14T01:15:46.120Z,23.55
2019-02-14T01:16:23.634Z,23.90
2019-02-14T01:17:01.915Z,24.60
2019-02-14T01:17:39.621Z,24.23
2019-02-14T01:18:17.568Z,24.37
2019-02-14T01:18:55.340Z,22.75
2019-02-14T01:19:32.797Z,25.40
2019-02-14T01:20:10.720Z,22.90
2019-02-14T01:20:48.014Z,23.35
2019-02-14T01:21:25.712Z,23.15
2019-02-14T01:22:03.420Z,24.87
2019-02-14T01:22:40.749Z,24.95
2019-02-14T01:23:18.329Z,23.12
2019-02-14T01:23:55.592Z,24.07
2019-02-14T01:24:32.652Z,22.65
2019-02-14T01:25:10.141Z,24.70
2019-02-14T01:25:47.784Z,22.58
2019-02-14T01:26:25.190Z,22.30
2019-02-14T01:27:02.921Z,24.23
2019-02-14T01:27:40.805Z,24.20
2019-02-14T01:28:18.548Z,22.90
2019-02-14T01:28:56.472Z,23.30
2019-02-14T01:29:35.457Z,24.07
2019-02-14T01:30:12.902Z,23.27
2019-02-14T01:30:50.429Z,23.95
2019-02-14T01:31:28.415Z,23.65
2019-02-14T01:32:06.200Z,22.22
2019-02-14T01:32:44.061Z,24.65
2019-02-14T01:33:22.080Z,23.40
2019-02-14T01:33:59.508Z,23.65
2019-02-14T01:34:37.576Z,23.50
2019-02-14T01:35:16.310Z,23.38
2019-02-14T01:35:54.264Z,23.30
2019-02-14T01:36:32.518Z,22.90
2019-02-14T01:37:10.144Z,23.40
2019-02-14T01:37:48.289Z,24.55
2019-02-14T01:38:26.058Z,23.22
2019-02-14T01:39:04.462Z,23.75
2019-02-14T01:39:41.808Z,24.12
2019-02-14T01:40:19.784Z,22.22
2019-02-14T01:40:57.672Z,23.60
2019-02-14T01:41:35.734Z,22.45
2019-02-14T01:42:15.312Z,23.42
2019-02-14T01:42:52.956Z,23.40
2019-02-14T01:43:30.068Z,22.60
2019-02-14T01:44:09.953Z,22.60
2019-02-14T01:44:48.003Z,21.95
2019-02-14T01:45:25.806Z,22.70
2019-02-14T01:46:03.726Z,22.98
2019-02-14T01:46:41.232Z,22.55
2019-02-14T01:47:18.462Z,22.05
2019-02-14T01:47:56.069Z,24.00
2019-02-14T01:48:33.706Z,22.27
2019-02-14T01:49:11.750Z,23.32
2019-02-14T01:49:49.566Z,22.40
2019-02-14T01:50:27.468Z,22.58
2019-02-14T01:51:05.136Z,23.40
2019-02-14T01:51:42.846Z,21.17
2019-02-14T01:52:20.244Z,21.68
2019-02-14T01:52:57.304Z,22.73
2019-02-14T01:53:34.662Z,22.60
2019-02-14T01:54:12.428Z,21.30
2019-02-14T01:54:49.768Z,22.55
2019-02-14T01:55:27.132Z,24.25
2019-02-14T01:56:04.679Z,23.65
2019-02-14T01:56:42.321Z,22.42
2019-02-14T01:57:19.672Z,22.60
2019-02-14T01:57:59.140Z,24.35
2019-02-14T01:58:36.568Z,24.10
2019-02-14T01:59:14.124Z,24.25
2019-02-14T01:59:51.178Z,21.62
2019-02-14T02:00:28.916Z,22.27
2019-02-14T02:01:06.468Z,22.40
2019-02-14T02:01:44.086Z,21.87
2019-02-14T02:02:23.561Z,21.45
2019-02-14T02:03:00.922Z,22.87
2019-02-14T02:03:37.977Z,24.00
2019-02-14T02:04:16.049Z,23.75
2019-02-14T02:04:53.836Z,21.42
2019-02-14T02:05:31.018Z,21.25
2019-02-14T02:06:08.680Z,22.70
2019-02-14T02:06:46.623Z,23.80
2019-02-14T02:07:24.106Z,22.58
2019-02-14T02:08:02.231Z,23.75
2019-02-14T02:08:40.088Z,23.25
2019-02-14T02:09:17.661Z,22.67
2019-02-14T02:09:55.722Z,23.35
2019-02-14T02:10:33.428Z,22.73
2019-02-14T02:11:11.112Z,24.35
2019-02-14T02:11:48.810Z,23.65
2019-02-14T02:12:26.510Z,23.10
2019-02-14T02:13:04.260Z,24.30
2019-02-14T02:13:41.879Z,22.98
2019-02-14T02:14:19.128Z,22.60
2019-02-14T02:14:56.247Z,21.87
2019-02-14T02:15:33.972Z,23.47
2019-02-14T02:16:10.991Z,23.67
2019-02-14T02:16:48.837Z,22.52
2019-02-14T02:17:26.493Z,22.75
2019-02-14T02:18:04.405Z,22.93
2019-02-14T02:18:41.757Z,24.55
2019-02-14T02:19:19.412Z,24.00
2019-02-14T02:19:57.256Z,24.43
2019-02-14T02:20:34.602Z,24.37
2019-02-14T02:21:13.882Z,24.43
2019-02-14T02:21:51.780Z,25.02
2019-02-14T02:22:29.408Z,24.15
2019-02-14T02:23:08.734Z,24.65
2019-02-14T02:23:46.473Z,25.10
2019-02-14T02:24:24.014Z,26.80
2019-02-14T02:25:01.613Z,26.07
2019-02-14T02:25:39.207Z,24.52
2019-02-14T02:26:17.196Z,26.23
2019-02-14T02:26:55.200Z,26.37
2019-02-14T02:27:35.576Z,26.62
2019-02-14T02:28:12.802Z,25.35
2019-02-14T02:28:52.657Z,26.02
2019-02-14T02:29:30.336Z,28.87
2019-02-14T02:30:10.121Z,26.05
2019-02-14T02:30:47.204Z,28.17
2019-02-14T02:31:24.583Z,26.97
2019-02-14T02:32:02.331Z,27.50
2019-02-14T02:32:39.633Z,26.65
2019-02-14T02:33:17.113Z,25.72
2019-02-14T02:33:54.577Z,26.27
2019-02-14T02:34:32.260Z,25.55
2019-02-14T02:35:09.996Z,25.35
2019-02-14T02:35:47.286Z,25.60
2019-02-14T02:36:24.610Z,27.80
2019-02-14T02:37:02.497Z,26.85
2019-02-14T02:37:40.200Z,27.87
2019-02-14T02:38:17.506Z,26.05
2019-02-14T02:38:55.042Z,25.12
2019-02-14T02:39:32.045Z,25.15
2019-02-14T02:40:10.052Z,25.40
2019-02-14T02:40:47.641Z,25.70
2019-02-14T02:41:24.974Z,26.95
2019-02-14T02:42:02.547Z,26.33
2019-02-14T02:42:41.305Z,24.40
2019-02-14T02:43:19.196Z,24.87
2019-02-14T02:43:56.523Z,26.25
2019-02-14T02:44:33.761Z,27.37
2019-02-14T02:45:12.834Z,26.30
2019-02-14T02:45:52.187Z,23.47
2019-02-14T02:46:29.608Z,24.37
2019-02-14T02:47:07.476Z,24.72
2019-02-14T02:47:45.948Z,24.75
2019-02-14T02:48:23.628Z,26.10
2019-02-14T02:49:04.256Z,26.33
2019-02-14T02:49:41.896Z,24.20
2019-02-14T02:50:19.428Z,26.97
2019-02-14T02:50:56.545Z,25.97
2019-02-14T02:51:34.218Z,25.17
2019-02-14T02:52:12.009Z,26.80
2019-02-14T02:52:49.494Z,24.72
2019-02-14T02:53:27.125Z,24.05
2019-02-14T02:54:05.111Z,26.27
2019-02-14T02:54:42.512Z,25.62
2019-02-14T02:55:22.529Z,27.02
2019-02-14T02:56:00.061Z,27.67
2019-02-14T02:56:37.652Z,25.37
2019-02-14T02:57:15.042Z,27.40
2019-02-14T02:57:53.098Z,28.52
2019-02-14T02:58:30.666Z,27.48
2019-02-14T02:59:08.840Z,27.37
2019-02-14T02:59:46.457Z,27.48
2019-02-14T03:00:24.108Z,26.65
2019-02-14T03:01:02.731Z,26.85
2019-02-14T03:01:40.384Z,27.75
2019-02-14T03:02:17.677Z,29.10
2019-02-14T03:02:54.919Z,28.00
2019-02-14T03:03:32.408Z,27.22
2019-02-14T03:04:10.105Z,29.00
2019-02-14T03:04:47.370Z,27.90
2019-02-14T03:05:24.949Z,27.98
2019-02-14T03:06:10.226Z,29.50
2019-02-14T03:06:41.524Z,27.93
2019-02-14T03:07:18.907Z,29.40
2019-02-14T03:07:56.610Z,28.60
2019-02-14T03:08:34.369Z,28.92
2019-02-14T03:09:12.079Z,30.68
2019-02-14T03:09:49.645Z,29.45
2019-02-14T03:10:27.148Z,29.77
2019-02-14T03:11:04.348Z,31.05
2019-02-14T03:11:42.209Z,30.82
2019-02-14T03:12:20.057Z,30.45
2019-02-14T03:12:57.913Z,30.92
2019-02-14T03:13:35.163Z,29.05
2019-02-14T03:14:13.089Z,30.50
2019-02-14T03:14:51.061Z,31.62
2019-02-14T03:15:28.696Z,31.42
2019-02-14T03:16:06.143Z,30.05
2019-02-14T03:16:43.869Z,29.85
2019-02-14T03:17:23.093Z,30.15
2019-02-14T03:18:19.809Z,32.38
2019-02-14T03:18:58.414Z,30.10
2019-02-14T03:19:35.992Z,30.50
2019-02-14T03:20:13.565Z,30.15
2019-02-14T03:20:51.737Z,31.60
2019-02-14T03:21:29.682Z,31.07
2019-02-14T03:22:07.472Z,31.55
2019-02-14T03:22:45.150Z,32.73
2019-02-14T03:23:23.084Z,33.42
2019-02-14T03:24:00.823Z,34.33
2019-02-14T03:24:38.717Z,33.55
2019-02-14T03:25:17.248Z,30.80
2019-02-14T03:25:54.453Z,31.73
2019-02-14T03:26:32.131Z,31.97
2019-02-14T03:27:09.709Z,33.33
2019-02-14T03:27:47.870Z,32.53
2019-02-14T03:28:25.764Z,34.43
2019-02-14T03:29:03.656Z,33.78
2019-02-14T03:29:41.203Z,33.00
2019-02-14T03:30:18.609Z,33.13
2019-02-14T03:30:56.499Z,35.80
2019-02-14T03:31:34.531Z,34.83
2019-02-14T03:32:12.564Z,32.20
2019-02-14T03:32:50.016Z,33.42
2019-02-14T03:33:27.989Z,33.33
2019-02-14T03:34:05.107Z,33.95
2019-02-14T03:34:42.736Z,35.88
2019-02-14T03:35:20.277Z,35.10
2019-02-14T03:35:57.562Z,35.30
2019-02-14T03:36:35.329Z,33.95
2019-02-14T03:37:12.728Z,34.25
2019-02-14T03:37:52.320Z,33.60
2019-02-14T03:38:29.395Z,36.17
2019-02-14T03:39:08.900Z,33.75
2019-02-14T03:39:46.731Z,35.00
2019-02-14T03:40:24.524Z,33.45
2019-02-14T03:41:04.911Z,35.58
2019-02-14T03:41:45.727Z,34.23
2019-02-14T03:42:24.381Z,34.20
2019-02-14T03:43:01.747Z,33.48
2019-02-14T03:43:39.645Z,35.23
2019-02-14T03:44:16.955Z,35.55
2019-02-14T03:44:54.949Z,33.73
2019-02-14T03:45:32.283Z,32.95
2019-02-14T03:46:16.117Z,34.90
2019-02-14T03:46:53.289Z,33.73
2019-02-14T03:47:31.257Z,36.68
2019-02-14T03:48:08.874Z,36.55
2019-02-14T03:48:46.491Z,34.73
2019-02-14T03:49:23.944Z,36.05
2019-02-14T03:50:00.992Z,36.38
2019-02-14T03:50:38.619Z,34.75
2019-02-14T03:51:16.101Z,33.40
2019-02-14T03:51:53.627Z,36.48
2019-02-14T03:52:31.329Z,35.52
2019-02-14T03:53:08.655Z,35.92
2019-02-14T03:53:46.013Z,35.00
2019-02-14T03:54:23.745Z,36.30
2019-02-14T03:55:01.692Z,35.58
2019-02-14T03:55:39.704Z,37.10
2019-02-14T03:56:17.361Z,35.40
2019-02-14T03:56:55.145Z,34.92
2019-02-14T03:57:32.891Z,38.78
2019-02-14T03:58:10.993Z,38.53
2019-02-14T03:58:48.403Z,37.10
2019-02-14T03:59:25.933Z,36.23
2019-02-14T04:00:03.405Z,36.98
2019-02-14T04:00:41.303Z,37.75
2019-02-14T04:01:18.981Z,35.83
2019-02-14T04:01:56.651Z,36.33
2019-02-14T04:02:34.303Z,36.35
2019-02-14T04:03:12.003Z,36.68
2019-02-14T04:03:50.822Z,37.20
2019-02-14T04:04:28.467Z,39.15
2019-02-14T04:05:06.845Z,38.90
2019-02-14T04:05:44.357Z,37.40
2019-02-14T04:06:27.583Z,37.67
2019-02-14T04:07:01.420Z,35.73
2019-02-14T04:07:39.421Z,36.20
2019-02-14T04:08:17.691Z,38.60
2019-02-14T04:08:55.282Z,37.90
2019-02-14T04:09:32.593Z,36.83
2019-02-14T04:10:11.570Z,36.50
2019-02-14T04:10:49.355Z,36.13
2019-02-14T04:11:27.463Z,39.90
2019-02-14T04:12:05.344Z,38.23
2019-02-14T04:12:42.929Z,38.15
2019-02-14T04:13:20.139Z,37.98
2019-02-14T04:13:57.829Z,37.28
2019-02-14T04:14:35.356Z,38.80
2019-02-14T04:15:14.795Z,38.78
2019-02-14T04:15:52.879Z,36.88
2019-02-14T04:16:30.919Z,38.70
2019-02-14T04:17:09.029Z,37.23
2019-02-14T04:17:46.463Z,38.73
2019-02-14T04:18:24.471Z,38.42
2019-02-14T04:19:04.396Z,37.98
2019-02-14T04:19:42.167Z,38.00
2019-02-14T04:20:19.641Z,37.13
2019-02-14T04:20:56.727Z,40.58
2019-02-14T04:21:34.459Z,38.65
2019-02-14T04:22:12.443Z,39.98
2019-02-14T04:22:49.855Z,37.55
2019-02-14T04:23:27.443Z,37.50
2019-02-14T04:24:05.125Z,40.03
2019-02-14T04:24:42.595Z,35.55
2019-02-14T04:25:19.895Z,37.78
2019-02-14T04:25:57.900Z,36.98
2019-02-14T04:26:35.638Z,35.25
2019-02-14T04:27:13.367Z,38.08
2019-02-14T04:27:51.221Z,37.03
2019-02-14T04:28:29.207Z,37.00
2019-02-14T04:29:07.004Z,37.60
2019-02-14T04:29:44.711Z,37.90
2019-02-14T04:30:22.647Z,38.08
2019-02-14T04:30:59.688Z,37.42
2019-02-14T04:31:37.119Z,39.10
2019-02-14T04:32:14.263Z,37.03
2019-02-14T04:32:51.499Z,37.28
2019-02-14T04:33:28.912Z,35.90
2019-02-14T04:34:06.963Z,37.28
2019-02-14T04:34:44.837Z,35.45
2019-02-14T04:35:22.301Z,36.55
2019-02-14T04:35:59.988Z,37.23
2019-02-14T04:36:37.370Z,37.88
2019-02-14T04:37:15.067Z,36.80
2019-02-14T04:37:52.812Z,38.15
2019-02-14T04:38:30.544Z,37.25
2019-02-14T04:39:08.914Z,35.65
2019-02-14T04:39:47.319Z,37.20
2019-02-14T04:40:33.248Z,37.70
2019-02-14T04:41:04.005Z,35.40
2019-02-14T04:41:41.591Z,36.23
2019-02-14T04:42:19.553Z,37.33
2019-02-14T04:42:57.572Z,37.45
2019-02-14T04:43:36.401Z,36.40
2019-02-14T04:44:13.759Z,35.70
2019-02-14T04:44:50.829Z,36.38
2019-02-14T04:45:28.535Z,36.73
2019-02-14T04:46:06.395Z,35.98
2019-02-14T04:46:43.986Z,35.75
2019-02-14T04:47:21.360Z,35.40
2019-02-14T04:47:58.846Z,36.08
2019-02-14T04:48:36.959Z,35.88
2019-02-14T04:49:14.304Z,35.83
2019-02-14T04:49:52.092Z,36.95
2019-02-14T04:50:29.773Z,35.73
2019-02-14T04:51:07.254Z,39.83
2019-02-14T04:51:45.139Z,36.58
2019-02-14T04:52:23.060Z,36.50
2019-02-14T04:53:00.991Z,36.15
2019-02-14T04:53:38.941Z,35.58
2019-02-14T04:54:16.961Z,35.00
2019-02-14T04:54:54.685Z,35.92
2019-02-14T04:55:32.367Z,37.48
2019-02-14T04:56:10.366Z,33.90
2019-02-14T04:56:48.143Z,36.63
2019-02-14T04:57:25.809Z,38.02
2019-02-14T04:58:03.511Z,34.67
2019-02-14T04:58:41.371Z,37.70
2019-02-14T04:59:19.296Z,36.17
2019-02-14T04:59:57.175Z,36.70
2019-02-14T05:00:34.784Z,35.73
2019-02-14T05:01:12.779Z,34.75
2019-02-14T05:01:50.841Z,36.60
2019-02-14T05:02:28.558Z,36.85
2019-02-14T05:03:06.110Z,35.68
2019-02-14T05:03:44.220Z,38.40
2019-02-14T05:04:21.880Z,35.35
2019-02-14T05:04:59.518Z,38.38
2019-02-14T05:05:37.176Z,35.78
2019-02-14T05:06:14.928Z,34.63
2019-02-14T05:06:52.479Z,36.08
2019-02-14T05:07:30.116Z,34.50
2019-02-14T05:08:07.491Z,35.45
2019-02-14T05:08:45.206Z,37.73
2019-02-14T05:09:23.044Z,36.95
2019-02-14T05:10:00.754Z,37.95
2019-02-14T05:10:40.484Z,37.25
2019-02-14T05:11:18.164Z,36.83
2019-02-14T05:11:56.100Z,37.33
2019-02-14T05:12:34.043Z,38.55
2019-02-14T05:13:11.500Z,36.55
2019-02-14T05:13:50.615Z,36.68
2019-02-14T05:14:28.223Z,35.70
2019-02-14T05:15:06.750Z,37.90
2019-02-14T05:15:44.487Z,36.83
2019-02-14T05:16:22.192Z,36.88
2019-02-14T05:16:59.882Z,37.10
2019-02-14T05:17:37.670Z,34.92
2019-02-14T05:18:14.706Z,36.90
2019-02-14T05:18:52.159Z,36.05
2019-02-14T05:19:32.838Z,34.92
2019-02-14T05:20:11.169Z,37.00
2019-02-14T05:20:48.562Z,36.03
2019-02-14T05:21:26.656Z,36.42
2019-02-14T05:22:04.520Z,36.55
2019-02-14T05:22:42.489Z,37.20
2019-02-14T05:23:20.199Z,36.35
2019-02-14T05:23:57.686Z,37.00
2019-02-14T05:24:35.025Z,37.53
2019-02-14T05:25:12.502Z,35.28
2019-02-14T05:25:49.695Z,38.65
2019-02-14T05:26:27.748Z,36.93
2019-02-14T05:27:05.587Z,36.80
2019-02-14T05:27:50.548Z,35.50
2019-02-14T05:28:40.814Z,36.42
2019-02-14T05:29:18.855Z,37.70
2019-02-14T05:29:56.581Z,37.20
2019-02-14T05:30:34.451Z,35.17
2019-02-14T05:31:12.145Z,37.08
2019-02-14T05:31:50.017Z,34.83
2019-02-14T05:32:27.500Z,35.60
2019-02-14T05:33:04.950Z,38.28
2019-02-14T05:33:42.692Z,36.80
2019-02-14T05:34:20.638Z,36.15
2019-02-14T05:34:58.540Z,36.55
2019-02-14T05:35:36.560Z,35.85
2019-02-14T05:36:14.263Z,38.48
2019-02-14T05:36:54.660Z,36.03
2019-02-14T05:37:31.419Z,37.85
2019-02-14T05:38:08.415Z,36.98
2019-02-14T05:38:46.420Z,35.98
2019-02-14T05:39:24.383Z,37.35
2019-02-14T05:40:02.390Z,37.20
2019-02-14T05:40:40.383Z,34.15
2019-02-14T05:41:18.217Z,40.35
2019-02-14T05:41:55.616Z,35.35
2019-02-14T05:42:33.250Z,35.85
2019-02-14T05:43:11.370Z,36.35
2019-02-14T05:43:49.404Z,36.28
2019-02-14T05:44:27.408Z,36.95
2019-02-14T05:45:05.109Z,38.42
2019-02-14T05:45:42.978Z,37.23
2019-02-14T05:46:20.372Z,36.30
2019-02-14T05:46:57.715Z,37.05
2019-02-14T05:47:35.008Z,36.05
2019-02-14T05:48:12.447Z,36.68
2019-02-14T05:48:53.816Z,36.93
2019-02-14T05:49:30.870Z,36.10
2019-02-14T05:50:09.016Z,36.60
2019-02-14T05:50:46.644Z,35.43
2019-02-14T05:51:24.696Z,37.90
2019-02-14T05:52:02.186Z,36.33
2019-02-14T05:52:39.608Z,36.70
2019-02-14T05:53:17.135Z,35.73
2019-02-14T05:53:55.203Z,38.30
2019-02-14T05:54:33.172Z,37.90
2019-02-14T05:55:11.655Z,36.53
2019-02-14T05:55:49.536Z,36.98
2019-02-14T05:56:27.580Z,38.05
2019-02-14T05:57:05.369Z,37.80
2019-02-14T05:57:43.335Z,36.70
2019-02-14T05:58:21.220Z,39.10
2019-02-14T05:58:59.313Z,36.83
2019-02-14T05:59:37.367Z,40.15
2019-02-14T06:00:15.392Z,37.88
2019-02-14T06:00:52.874Z,37.45
2019-02-14T06:01:30.592Z,38.58
2019-02-14T06:02:08.284Z,34.88
2019-02-14T06:02:46.414Z,38.38
2019-02-14T06:03:23.834Z,36.40
2019-02-14T06:04:01.803Z,34.48
2019-02-14T06:04:39.848Z,36.88
2019-02-14T06:05:17.848Z,36.53
2019-02-14T06:05:55.268Z,37.30
2019-02-14T06:06:32.968Z,38.30
2019-02-14T06:07:10.757Z,36.75
2019-02-14T06:07:47.898Z,36.50
2019-02-14T06:08:25.215Z,38.33
2019-02-14T06:09:02.756Z,38.05
2019-02-14T06:09:40.464Z,37.58
2019-02-14T06:10:19.748Z,40.78
2019-02-14T06:10:57.774Z,38.85
2019-02-14T06:11:34.926Z,40.23
2019-02-14T06:12:12.643Z,37.83
2019-02-14T06:12:50.575Z,38.90
2019-02-14T06:13:28.356Z,37.50
2019-02-14T06:14:07.332Z,36.50
2019-02-14T06:14:45.349Z,37.45
2019-02-14T06:15:23.404Z,37.70
2019-02-14T06:16:00.914Z,38.98
2019-02-14T06:16:38.730Z,37.73
2019-02-14T06:17:16.180Z,39.03
2019-02-14T06:17:54.142Z,37.08
2019-02-14T06:18:31.901Z,38.67
2019-02-14T06:19:09.390Z,38.85
2019-02-14T06:19:47.398Z,39.95
2019-02-14T06:20:24.867Z,39.08
2019-02-14T06:21:01.970Z,38.23
2019-02-14T06:21:39.842Z,39.00
2019-02-14T06:22:17.318Z,37.70
2019-02-14T06:22:54.996Z,37.38
2019-02-14T06:23:32.653Z,38.90
2019-02-14T06:24:10.685Z,36.73
2019-02-14T06:24:48.697Z,37.20
2019-02-14T06:25:26.757Z,39.18
2019-02-14T06:26:04.586Z,37.15
2019-02-14T06:26:42.519Z,37.25
2019-02-14T06:27:20.404Z,36.55
2019-02-14T06:27:57.780Z,39.10
2019-02-14T06:28:37.271Z,37.73
2019-02-14T06:29:14.992Z,36.33
2019-02-14T06:29:52.896Z,37.67
2019-02-14T06:30:29.585Z,38.15
2019-02-14T06:31:06.908Z,39.03
2019-02-14T06:31:44.517Z,38.50
2019-02-14T06:32:22.144Z,37.33
2019-02-14T06:32:59.466Z,36.88
2019-02-14T06:33:37.160Z,39.08
2019-02-14T06:34:14.551Z,38.80
2019-02-14T06:34:52.388Z,38.45
2019-02-14T06:35:29.516Z,37.80
2019-02-14T06:36:07.263Z,38.05
2019-02-14T06:36:44.348Z,39.13
2019-02-14T06:37:22.015Z,38.28
2019-02-14T06:37:59.796Z,38.28
2019-02-14T06:38:37.260Z,39.50
2019-02-14T06:39:14.955Z,38.55
2019-02-14T06:39:52.645Z,38.17
2019-02-14T06:40:30.696Z,39.35
2019-02-14T06:41:08.678Z,38.23
2019-02-14T06:41:46.034Z,36.93
2019-02-14T06:42:23.616Z,38.53
2019-02-14T06:43:00.842Z,37.80
2019-02-14T06:43:38.624Z,38.67
2019-02-14T06:44:16.261Z,36.88
2019-02-14T06:44:54.296Z,38.98
2019-02-14T06:45:32.408Z,37.83
2019-02-14T06:46:09.884Z,35.58
2019-02-14T06:46:47.893Z,38.08
2019-02-14T06:47:25.593Z,37.28
2019-02-14T06:48:03.586Z,38.23
2019-02-14T06:48:41.859Z,36.68
2019-02-14T06:49:19.736Z,36.93
2019-02-14T06:49:59.184Z,36.30
2019-02-14T06:50:37.170Z,36.85
2019-02-14T06:51:15.088Z,38.05
2019-02-14T06:51:53.204Z,37.75
2019-02-14T06:52:30.964Z,38.65
2019-02-14T06:53:11.712Z,37.60
2019-02-14T06:53:49.726Z,38.35
2019-02-14T06:54:27.674Z,36.40
2019-02-14T06:55:05.158Z,38.02
2019-02-14T06:55:42.508Z,37.95
2019-02-14T06:56:20.296Z,38.38
2019-02-14T06:56:57.986Z,36.63
2019-02-14T06:57:35.774Z,37.48
2019-02-14T06:58:13.484Z,38.08
2019-02-14T06:58:51.168Z,37.75
2019-02-14T06:59:28.970Z,39.95
2019-02-14T07:00:07.176Z,38.08
2019-02-14T07:00:45.004Z,37.08
2019-02-14T07:01:22.391Z,37.40
2019-02-14T07:02:00.116Z,38.75
2019-02-14T07:02:37.786Z,35.30
2019-02-14T07:03:15.568Z,37.78
2019-02-14T07:03:53.659Z,38.75
2019-02-14T07:04:31.358Z,37.28
2019-02-14T07:05:09.608Z,38.73
2019-02-14T07:05:47.720Z,39.15
2019-02-14T07:06:25.724Z,38.88
2019-02-14T07:07:03.223Z,38.63
2019-02-14T07:07:40.944Z,39.05
2019-02-14T07:08:18.638Z,38.73
2019-02-14T07:08:56.439Z,39.58
2019-02-14T07:09:35.864Z,38.78
2019-02-14T07:10:13.477Z,39.53
2019-02-14T07:10:51.226Z,39.90
2019-02-14T07:11:28.735Z,38.25
2019-02-14T07:12:06.592Z,38.00
2019-02-14T07:12:43.786Z,37.95
2019-02-14T07:13:21.516Z,38.08
2019-02-14T07:14:18.304Z,38.67
2019-02-14T07:14:56.137Z,37.85
2019-02-14T07:15:52.372Z,38.38
2019-02-14T07:16:30.340Z,37.23
2019-02-14T07:17:08.286Z,38.53
2019-02-14T07:17:46.381Z,37.42
2019-02-14T07:18:23.839Z,37.48
2019-02-14T07:19:01.973Z,36.90
2019-02-14T07:19:39.458Z,38.48
2019-02-14T07:20:17.629Z,40.28
2019-02-14T07:20:55.188Z,37.45
2019-02-14T07:21:32.864Z,38.58
2019-02-14T07:22:10.651Z,38.48
2019-02-14T07:22:48.406Z,38.55
2019-02-14T07:23:26.223Z,37.78
2019-02-14T07:24:04.052Z,39.00
2019-02-14T07:24:42.074Z,36.60
2019-02-14T07:25:19.942Z,37.08
2019-02-14T07:25:57.839Z,39.50
2019-02-14T07:26:35.613Z,38.50
2019-02-14T07:27:32.600Z,38.02
2019-02-14T07:28:10.592Z,34.80
2019-02-14T07:28:48.016Z,36.13
2019-02-14T07:29:25.783Z,37.83
2019-02-14T07:30:05.558Z,36.20
2019-02-14T07:30:43.544Z,36.88
2019-02-14T07:31:21.564Z,36.23
2019-02-14T07:32:01.714Z,34.60
2019-02-14T07:32:39.460Z,36.35
2019-02-14T07:33:17.516Z,36.38
2019-02-14T07:33:55.676Z,36.50
2019-02-14T07:34:33.495Z,36.83
2019-02-14T07:35:30.519Z,36.50
2019-02-14T07:36:08.584Z,35.60
2019-02-14T07:36:46.408Z,40.80
2019-02-14T07:37:26.907Z,36.38
2019-02-14T07:38:03.764Z,36.00
2019-02-14T07:38:41.086Z,35.15
2019-02-14T07:39:19.088Z,36.77
2019-02-14T07:39:56.940Z,36.20
2019-02-14T07:40:35.382Z,37.60
2019-02-14T07:41:13.357Z,37.25
2019-02-14T07:41:50.758Z,38.95
2019-02-14T07:42:28.852Z,35.23
2019-02-14T07:43:06.664Z,36.50
2019-02-14T07:43:44.064Z,34.78
2019-02-14T07:44:22.076Z,38.10
2019-02-14T07:44:59.794Z,35.60
2019-02-14T07:45:37.356Z,35.08
2019-02-14T07:46:22.499Z,35.70
2019-02-14T07:46:54.872Z,37.95
2019-02-14T07:47:32.626Z,34.58
2019-02-14T07:48:10.261Z,35.20
2019-02-14T07:48:48.103Z,35.08
2019-02-14T07:49:25.913Z,34.70
2019-02-14T07:50:04.006Z,35.95
2019-02-14T07:50:42.110Z,33.08
2019-02-14T07:51:19.549Z,35.88
2019-02-14T07:51:57.128Z,35.00
2019-02-14T07:52:35.457Z,32.75
2019-02-14T07:53:12.644Z,36.60
2019-02-14T07:53:50.561Z,37.42
2019-02-14T07:54:28.513Z,35.63
2019-02-14T07:55:06.867Z,37.50
2019-02-14T07:55:44.972Z,37.25
2019-02-14T07:56:22.856Z,36.15
2019-02-14T07:57:00.653Z,35.52
2019-02-14T07:57:38.508Z,37.48
2019-02-14T07:58:16.010Z,34.48
2019-02-14T07:58:53.668Z,35.60
2019-02-14T07:59:31.660Z,35.88
2019-02-14T08:00:12.307Z,34.55
2019-02-14T08:00:49.992Z,35.60
2019-02-14T08:01:30.058Z,33.33
2019-02-14T08:02:07.542Z,33.38
2019-02-14T08:02:45.632Z,34.40
2019-02-14T08:03:23.114Z,31.93
2019-02-14T08:04:00.493Z,34.78
2019-02-14T08:04:37.913Z,33.50
2019-02-14T08:05:15.140Z,34.53
2019-02-14T08:05:52.631Z,32.42
2019-02-14T08:06:30.645Z,35.30
2019-02-14T08:07:08.185Z,34.27
2019-02-14T08:07:45.768Z,33.08
2019-02-14T08:08:22.991Z,35.52
2019-02-14T08:09:00.942Z,34.00
2019-02-14T08:09:38.834Z,33.40
2019-02-14T08:10:17.256Z,35.60